sensor_id;sensor_type;location;lat;lon;timestamp;P1;durP1;ratioP1;P2;durP2;ratioP2
47523;SDS011;33253;42.144;25.884;2022-08-03T00:01:50;4.05;;;2.70;;
47523;SDS011;33253;42.144;25.884;2022-08-03T00:04:16;6.38;;;2.70;;
47523;SDS011;33253;42.144;25.884;2022-08-03T00:06:41;11.15;;;2.70;;
47523;SDS011;33253;42.144;25.884;2022-08-03T00:09:07;6.05;;;3.00;;
47523;SDS011;33253;42.144;25.884;2022-08-03T00:11:33;6.05;;;2.92;;
47523;SDS011;33253;42.144;25.884;2022-08-03T00:13:59;5.78;;;2.58;;
47523;SDS011;33253;42.144;25.884;2022-08-03T00:16:25;7.53;;;3.10;;
47523;SDS011;33253;42.144;25.884;2022-08-03T00:18:51;7.70;;;3.05;;
47523;SDS011;33253;42.144;25.884;2022-08-03T00:21:17;4.28;;;2.90;;
47523;SDS011;33253;42.144;25.884;2022-08-03T00:23:42;8.85;;;3.38;;
47523;SDS011;33253;42.144;25.884;2022-08-03T00:26:08;4.60;;;2.95;;
47523;SDS011;33253;42.144;25.884;2022-08-03T00:28:33;5.05;;;2.92;;
47523;SDS011;33253;42.144;25.884;2022-08-03T00:30:59;5.00;;;2.90;;
47523;SDS011;33253;42.144;25.884;2022-08-03T00:33:24;5.15;;;2.90;;
47523;SDS011;33253;42.144;25.884;2022-08-03T00:35:50;5.63;;;2.80;;
47523;SDS011;33253;42.144;25.884;2022-08-03T00:38:16;7.50;;;3.20;;
47523;SDS011;33253;42.144;25.884;2022-08-03T00:40:42;4.68;;;2.83;;
47523;SDS011;33253;42.144;25.884;2022-08-03T00:43:07;4.22;;;2.75;;
47523;SDS011;33253;42.144;25.884;2022-08-03T00:45:34;6.18;;;2.65;;
47523;SDS011;33253;42.144;25.884;2022-08-03T00:50:30;4.22;;;2.90;;
47523;SDS011;33253;42.144;25.884;2022-08-03T00:52:58;4.10;;;2.88;;
47523;SDS011;33253;42.144;25.884;2022-08-03T00:55:26;6.85;;;3.00;;
47523;SDS011;33253;42.144;25.884;2022-08-03T00:57:52;5.25;;;2.90;;
47523;SDS011;33253;42.144;25.884;2022-08-03T01:00:20;8.68;;;3.00;;
47523;SDS011;33253;42.144;25.884;2022-08-03T01:05:13;5.88;;;3.10;;
47523;SDS011;33253;42.144;25.884;2022-08-03T01:10:17;6.30;;;3.20;;
47523;SDS011;33253;42.144;25.884;2022-08-03T01:12:58;4.72;;;3.17;;
47523;SDS011;33253;42.144;25.884;2022-08-03T01:20:39;5.15;;;3.20;;
47523;SDS011;33253;42.144;25.884;2022-08-03T01:26:21;8.27;;;3.60;;
47523;SDS011;33253;42.144;25.884;2022-08-03T01:31:28;7.13;;;3.50;;
47523;SDS011;33253;42.144;25.884;2022-08-03T01:34:07;5.40;;;3.63;;
47523;SDS011;33253;42.144;25.884;2022-08-03T01:36:37;5.70;;;3.90;;
47523;SDS011;33253;42.144;25.884;2022-08-03T01:39:07;5.53;;;3.72;;
47523;SDS011;33253;42.144;25.884;2022-08-03T01:41:55;7.10;;;3.67;;
47523;SDS011;33253;42.144;25.884;2022-08-03T01:44:24;5.70;;;3.38;;
47523;SDS011;33253;42.144;25.884;2022-08-03T01:46:53;5.60;;;3.55;;
47523;SDS011;33253;42.144;25.884;2022-08-03T01:49:24;6.75;;;3.10;;
47523;SDS011;33253;42.144;25.884;2022-08-03T01:51:52;6.63;;;3.50;;
47523;SDS011;33253;42.144;25.884;2022-08-03T01:54:19;4.63;;;3.00;;
47523;SDS011;33253;42.144;25.884;2022-08-03T01:56:46;6.70;;;3.42;;
47523;SDS011;33253;42.144;25.884;2022-08-03T01:59:15;5.03;;;3.33;;
47523;SDS011;33253;42.144;25.884;2022-08-03T02:01:43;5.45;;;3.65;;
47523;SDS011;33253;42.144;25.884;2022-08-03T02:04:10;8.48;;;3.67;;
47523;SDS011;33253;42.144;25.884;2022-08-03T02:06:37;5.03;;;3.50;;
47523;SDS011;33253;42.144;25.884;2022-08-03T02:09:04;5.53;;;3.60;;
47523;SDS011;33253;42.144;25.884;2022-08-03T02:11:31;6.70;;;3.80;;
47523;SDS011;33253;42.144;25.884;2022-08-03T02:14:00;9.27;;;3.45;;
47523;SDS011;33253;42.144;25.884;2022-08-03T02:18:55;4.75;;;3.50;;
47523;SDS011;33253;42.144;25.884;2022-08-03T02:21:23;5.28;;;3.30;;
47523;SDS011;33253;42.144;25.884;2022-08-03T02:23:50;6.38;;;3.65;;
47523;SDS011;33253;42.144;25.884;2022-08-03T02:26:16;6.05;;;3.67;;
47523;SDS011;33253;42.144;25.884;2022-08-03T02:28:46;5.47;;;3.83;;
47523;SDS011;33253;42.144;25.884;2022-08-03T02:31:15;6.25;;;3.55;;
47523;SDS011;33253;42.144;25.884;2022-08-03T02:33:52;6.57;;;3.92;;
47523;SDS011;33253;42.144;25.884;2022-08-03T02:36:24;7.30;;;4.38;;
47523;SDS011;33253;42.144;25.884;2022-08-03T02:38:53;5.60;;;3.88;;
47523;SDS011;33253;42.144;25.884;2022-08-03T02:41:27;8.13;;;3.80;;
47523;SDS011;33253;42.144;25.884;2022-08-03T02:43:56;5.65;;;3.88;;
47523;SDS011;33253;42.144;25.884;2022-08-03T02:46:30;6.95;;;4.03;;
47523;SDS011;33253;42.144;25.884;2022-08-03T02:49:01;5.22;;;3.60;;
47523;SDS011;33253;42.144;25.884;2022-08-03T02:51:31;4.80;;;3.67;;
47523;SDS011;33253;42.144;25.884;2022-08-03T02:53:59;8.55;;;3.95;;
47523;SDS011;33253;42.144;25.884;2022-08-03T02:56:27;8.27;;;4.45;;
47523;SDS011;33253;42.144;25.884;2022-08-03T02:58:53;6.10;;;4.38;;
47523;SDS011;33253;42.144;25.884;2022-08-03T03:01:22;7.93;;;3.80;;
47523;SDS011;33253;42.144;25.884;2022-08-03T03:03:50;6.72;;;4.15;;
47523;SDS011;33253;42.144;25.884;2022-08-03T03:06:18;10.10;;;3.95;;
47523;SDS011;33253;42.144;25.884;2022-08-03T03:08:44;12.00;;;4.07;;
47523;SDS011;33253;42.144;25.884;2022-08-03T03:11:12;10.57;;;4.45;;
47523;SDS011;33253;42.144;25.884;2022-08-03T03:13:39;8.55;;;4.40;;
47523;SDS011;33253;42.144;25.884;2022-08-03T03:16:07;5.47;;;4.30;;
47523;SDS011;33253;42.144;25.884;2022-08-03T03:18:35;8.95;;;4.38;;
47523;SDS011;33253;42.144;25.884;2022-08-03T03:21:03;6.22;;;3.80;;
47523;SDS011;33253;42.144;25.884;2022-08-03T03:23:29;8.50;;;4.32;;
47523;SDS011;33253;42.144;25.884;2022-08-03T03:25:59;6.35;;;4.45;;
47523;SDS011;33253;42.144;25.884;2022-08-03T03:28:26;8.00;;;4.63;;
47523;SDS011;33253;42.144;25.884;2022-08-03T03:30:52;11.02;;;4.55;;
47523;SDS011;33253;42.144;25.884;2022-08-03T03:33:18;6.53;;;4.53;;
47523;SDS011;33253;42.144;25.884;2022-08-03T03:35:43;9.18;;;4.75;;
47523;SDS011;33253;42.144;25.884;2022-08-03T03:38:10;6.25;;;4.00;;
47523;SDS011;33253;42.144;25.884;2022-08-03T03:40:39;8.82;;;4.75;;
47523;SDS011;33253;42.144;25.884;2022-08-03T03:43:09;7.82;;;4.53;;
47523;SDS011;33253;42.144;25.884;2022-08-03T03:45:35;7.90;;;4.40;;
47523;SDS011;33253;42.144;25.884;2022-08-03T03:48:02;8.35;;;4.90;;
47523;SDS011;33253;42.144;25.884;2022-08-03T03:50:29;6.07;;;4.72;;
47523;SDS011;33253;42.144;25.884;2022-08-03T03:52:56;7.50;;;4.75;;
47523;SDS011;33253;42.144;25.884;2022-08-03T03:55:22;7.43;;;4.18;;
47523;SDS011;33253;42.144;25.884;2022-08-03T03:57:48;8.70;;;4.95;;
47523;SDS011;33253;42.144;25.884;2022-08-03T04:00:14;7.80;;;4.15;;
47523;SDS011;33253;42.144;25.884;2022-08-03T04:02:41;9.23;;;4.60;;
47523;SDS011;33253;42.144;25.884;2022-08-03T04:05:07;12.45;;;4.70;;
47523;SDS011;33253;42.144;25.884;2022-08-03T04:07:57;8.15;;;4.57;;
47523;SDS011;33253;42.144;25.884;2022-08-03T04:10:47;9.32;;;4.78;;
47523;SDS011;33253;42.144;25.884;2022-08-03T04:13:35;11.30;;;5.05;;
47523;SDS011;33253;42.144;25.884;2022-08-03T04:16:04;10.35;;;4.80;;
47523;SDS011;33253;42.144;25.884;2022-08-03T04:18:33;6.28;;;4.60;;
47523;SDS011;33253;42.144;25.884;2022-08-03T04:21:02;7.57;;;5.03;;
47523;SDS011;33253;42.144;25.884;2022-08-03T04:23:30;7.82;;;4.68;;
47523;SDS011;33253;42.144;25.884;2022-08-03T04:26:00;7.43;;;4.18;;
47523;SDS011;33253;42.144;25.884;2022-08-03T04:28:27;7.45;;;4.63;;
47523;SDS011;33253;42.144;25.884;2022-08-03T04:30:54;7.75;;;4.93;;
47523;SDS011;33253;42.144;25.884;2022-08-03T04:33:20;11.15;;;4.70;;
47523;SDS011;33253;42.144;25.884;2022-08-03T04:35:47;5.63;;;4.90;;
47523;SDS011;33253;42.144;25.884;2022-08-03T04:38:14;8.55;;;5.18;;
47523;SDS011;33253;42.144;25.884;2022-08-03T04:40:42;6.93;;;4.80;;
47523;SDS011;33253;42.144;25.884;2022-08-03T04:43:10;8.27;;;5.30;;
47523;SDS011;33253;42.144;25.884;2022-08-03T04:45:38;12.25;;;4.95;;
47523;SDS011;33253;42.144;25.884;2022-08-03T04:48:05;8.05;;;5.00;;
47523;SDS011;33253;42.144;25.884;2022-08-03T04:50:31;9.52;;;5.20;;
47523;SDS011;33253;42.144;25.884;2022-08-03T04:52:57;7.20;;;5.00;;
47523;SDS011;33253;42.144;25.884;2022-08-03T04:55:24;6.90;;;5.30;;
47523;SDS011;33253;42.144;25.884;2022-08-03T04:57:55;9.82;;;5.43;;
47523;SDS011;33253;42.144;25.884;2022-08-03T05:00:21;9.52;;;5.45;;
47523;SDS011;33253;42.144;25.884;2022-08-03T05:02:46;7.45;;;5.22;;
47523;SDS011;33253;42.144;25.884;2022-08-03T05:05:12;9.52;;;5.90;;
47523;SDS011;33253;42.144;25.884;2022-08-03T05:07:37;7.93;;;6.43;;
47523;SDS011;33253;42.144;25.884;2022-08-03T05:10:08;8.80;;;5.60;;
47523;SDS011;33253;42.144;25.884;2022-08-03T05:12:34;10.82;;;6.60;;
47523;SDS011;33253;42.144;25.884;2022-08-03T05:15:00;12.82;;;5.95;;
47523;SDS011;33253;42.144;25.884;2022-08-03T05:17:26;13.70;;;5.85;;
47523;SDS011;33253;42.144;25.884;2022-08-03T05:19:52;16.35;;;7.50;;
47523;SDS011;33253;42.144;25.884;2022-08-03T05:22:19;18.13;;;7.75;;
47523;SDS011;33253;42.144;25.884;2022-08-03T05:24:44;14.88;;;6.97;;
47523;SDS011;33253;42.144;25.884;2022-08-03T05:27:10;15.90;;;7.30;;
47523;SDS011;33253;42.144;25.884;2022-08-03T05:29:41;17.38;;;7.55;;
47523;SDS011;33253;42.144;25.884;2022-08-03T05:32:07;26.25;;;7.43;;
47523;SDS011;33253;42.144;25.884;2022-08-03T05:34:33;30.05;;;7.93;;
47523;SDS011;33253;42.144;25.884;2022-08-03T05:36:59;21.20;;;8.38;;
47523;SDS011;33253;42.144;25.884;2022-08-03T05:39:24;29.92;;;9.55;;
47523;SDS011;33253;42.144;25.884;2022-08-03T05:41:50;29.60;;;10.30;;
47523;SDS011;33253;42.144;25.884;2022-08-03T05:44:15;36.58;;;9.95;;
47523;SDS011;33253;42.144;25.884;2022-08-03T05:46:41;42.13;;;10.38;;
47523;SDS011;33253;42.144;25.884;2022-08-03T05:49:06;23.48;;;8.52;;
47523;SDS011;33253;42.144;25.884;2022-08-03T05:51:32;27.48;;;8.57;;
47523;SDS011;33253;42.144;25.884;2022-08-03T05:53:57;29.42;;;7.85;;
47523;SDS011;33253;42.144;25.884;2022-08-03T05:56:23;22.67;;;7.03;;
47523;SDS011;33253;42.144;25.884;2022-08-03T05:58:51;18.92;;;6.63;;
47523;SDS011;33253;42.144;25.884;2022-08-03T06:01:17;30.67;;;7.82;;
47523;SDS011;33253;42.144;25.884;2022-08-03T06:03:45;29.85;;;7.97;;
47523;SDS011;33253;42.144;25.884;2022-08-03T06:06:11;33.50;;;7.30;;
47523;SDS011;33253;42.144;25.884;2022-08-03T06:08:38;20.35;;;6.63;;
47523;SDS011;33253;42.144;25.884;2022-08-03T06:11:04;23.73;;;6.75;;
47523;SDS011;33253;42.144;25.884;2022-08-03T06:13:29;23.58;;;6.72;;
47523;SDS011;33253;42.144;25.884;2022-08-03T06:15:56;20.10;;;6.00;;
47523;SDS011;33253;42.144;25.884;2022-08-03T06:18:21;21.95;;;6.28;;
47523;SDS011;33253;42.144;25.884;2022-08-03T06:20:48;30.42;;;7.18;;
47523;SDS011;33253;42.144;25.884;2022-08-03T06:23:16;20.92;;;5.30;;
47523;SDS011;33253;42.144;25.884;2022-08-03T06:25:42;17.95;;;5.38;;
47523;SDS011;33253;42.144;25.884;2022-08-03T06:28:08;13.57;;;4.03;;
47523;SDS011;33253;42.144;25.884;2022-08-03T06:30:33;20.30;;;6.25;;
47523;SDS011;33253;42.144;25.884;2022-08-03T06:32:59;22.85;;;6.55;;
47523;SDS011;33253;42.144;25.884;2022-08-03T06:35:25;12.80;;;4.20;;
47523;SDS011;33253;42.144;25.884;2022-08-03T06:37:52;14.32;;;3.55;;
47523;SDS011;33253;42.144;25.884;2022-08-03T06:40:19;18.08;;;5.35;;
47523;SDS011;33253;42.144;25.884;2022-08-03T06:42:57;14.82;;;4.10;;
47523;SDS011;33253;42.144;25.884;2022-08-03T06:45:23;9.90;;;3.55;;
47523;SDS011;33253;42.144;25.884;2022-08-03T06:47:58;11.75;;;4.07;;
47523;SDS011;33253;42.144;25.884;2022-08-03T06:50:28;16.50;;;4.55;;
47523;SDS011;33253;42.144;25.884;2022-08-03T06:52:54;25.15;;;6.53;;
47523;SDS011;33253;42.144;25.884;2022-08-03T06:55:20;23.30;;;5.10;;
47523;SDS011;33253;42.144;25.884;2022-08-03T06:57:45;7.75;;;3.05;;
47523;SDS011;33253;42.144;25.884;2022-08-03T07:00:11;5.30;;;2.58;;
47523;SDS011;33253;42.144;25.884;2022-08-03T07:02:37;7.88;;;3.20;;
47523;SDS011;33253;42.144;25.884;2022-08-03T07:05:03;11.10;;;2.65;;
47523;SDS011;33253;42.144;25.884;2022-08-03T07:07:29;4.60;;;2.50;;
47523;SDS011;33253;42.144;25.884;2022-08-03T07:09:55;10.85;;;3.13;;
47523;SDS011;33253;42.144;25.884;2022-08-03T07:12:20;8.45;;;2.70;;
47523;SDS011;33253;42.144;25.884;2022-08-03T07:14:46;7.88;;;2.55;;
47523;SDS011;33253;42.144;25.884;2022-08-03T07:17:11;8.85;;;2.63;;
47523;SDS011;33253;42.144;25.884;2022-08-03T07:19:37;15.38;;;3.33;;
47523;SDS011;33253;42.144;25.884;2022-08-03T07:22:02;7.75;;;2.30;;
47523;SDS011;33253;42.144;25.884;2022-08-03T07:24:28;9.45;;;2.30;;
47523;SDS011;33253;42.144;25.884;2022-08-03T07:26:53;6.82;;;2.95;;
47523;SDS011;33253;42.144;25.884;2022-08-03T07:29:19;9.40;;;2.90;;
47523;SDS011;33253;42.144;25.884;2022-08-03T07:31:45;9.90;;;3.22;;
47523;SDS011;33253;42.144;25.884;2022-08-03T07:34:12;19.08;;;4.30;;
47523;SDS011;33253;42.144;25.884;2022-08-03T07:36:37;20.05;;;4.15;;
47523;SDS011;33253;42.144;25.884;2022-08-03T07:39:03;5.63;;;2.80;;
47523;SDS011;33253;42.144;25.884;2022-08-03T07:41:29;5.82;;;2.72;;
47523;SDS011;33253;42.144;25.884;2022-08-03T07:43:55;6.35;;;2.67;;
47523;SDS011;33253;42.144;25.884;2022-08-03T07:46:21;11.65;;;3.78;;
47523;SDS011;33253;42.144;25.884;2022-08-03T07:48:47;7.10;;;2.88;;
47523;SDS011;33253;42.144;25.884;2022-08-03T07:51:12;4.28;;;2.40;;
47523;SDS011;33253;42.144;25.884;2022-08-03T07:53:38;6.18;;;2.60;;
47523;SDS011;33253;42.144;25.884;2022-08-03T07:56:06;4.35;;;2.40;;
47523;SDS011;33253;42.144;25.884;2022-08-03T07:58:34;4.55;;;2.20;;
47523;SDS011;33253;42.144;25.884;2022-08-03T08:01:00;5.05;;;2.10;;
47523;SDS011;33253;42.144;25.884;2022-08-03T08:03:25;4.68;;;2.25;;
47523;SDS011;33253;42.144;25.884;2022-08-03T08:05:51;3.90;;;2.30;;
47523;SDS011;33253;42.144;25.884;2022-08-03T08:08:17;8.23;;;3.65;;
47523;SDS011;33253;42.144;25.884;2022-08-03T08:10:44;25.90;;;4.70;;
47523;SDS011;33253;42.144;25.884;2022-08-03T08:13:09;3.95;;;2.75;;
47523;SDS011;33253;42.144;25.884;2022-08-03T08:15:35;10.60;;;3.03;;
47523;SDS011;33253;42.144;25.884;2022-08-03T08:18:00;3.42;;;2.10;;
47523;SDS011;33253;42.144;25.884;2022-08-03T08:20:27;4.38;;;2.30;;
47523;SDS011;33253;42.144;25.884;2022-08-03T08:22:56;5.05;;;2.65;;
47523;SDS011;33253;42.144;25.884;2022-08-03T08:25:23;3.72;;;2.20;;
47523;SDS011;33253;42.144;25.884;2022-08-03T08:27:49;3.33;;;2.22;;
47523;SDS011;33253;42.144;25.884;2022-08-03T08:30:17;2.40;;;2.00;;
47523;SDS011;33253;42.144;25.884;2022-08-03T08:32:44;5.47;;;2.63;;
47523;SDS011;33253;42.144;25.884;2022-08-03T08:35:10;5.18;;;2.20;;
47523;SDS011;33253;42.144;25.884;2022-08-03T08:37:36;3.72;;;2.08;;
47523;SDS011;33253;42.144;25.884;2022-08-03T08:40:02;4.78;;;2.38;;
47523;SDS011;33253;42.144;25.884;2022-08-03T08:42:30;25.92;;;5.97;;
47523;SDS011;33253;42.144;25.884;2022-08-03T08:44:56;5.22;;;2.55;;
47523;SDS011;33253;42.144;25.884;2022-08-03T08:47:24;4.57;;;2.20;;
47523;SDS011;33253;42.144;25.884;2022-08-03T08:49:53;3.95;;;2.10;;
47523;SDS011;33253;42.144;25.884;2022-08-03T08:52:23;7.03;;;2.50;;
47523;SDS011;33253;42.144;25.884;2022-08-03T08:54:51;5.22;;;2.38;;
47523;SDS011;33253;42.144;25.884;2022-08-03T08:57:24;5.30;;;2.35;;
47523;SDS011;33253;42.144;25.884;2022-08-03T08:59:53;8.70;;;2.60;;
47523;SDS011;33253;42.144;25.884;2022-08-03T09:02:21;5.28;;;2.30;;
47523;SDS011;33253;42.144;25.884;2022-08-03T09:04:53;4.72;;;2.50;;
47523;SDS011;33253;42.144;25.884;2022-08-03T09:07:19;7.75;;;2.80;;
47523;SDS011;33253;42.144;25.884;2022-08-03T09:09:45;5.93;;;1.90;;
47523;SDS011;33253;42.144;25.884;2022-08-03T09:12:10;4.47;;;2.20;;
47523;SDS011;33253;42.144;25.884;2022-08-03T09:14:35;8.07;;;2.67;;
47523;SDS011;33253;42.144;25.884;2022-08-03T09:17:02;20.33;;;5.63;;
47523;SDS011;33253;42.144;25.884;2022-08-03T09:19:29;12.20;;;2.80;;
47523;SDS011;33253;42.144;25.884;2022-08-03T09:22:08;4.97;;;2.13;;
47523;SDS011;33253;42.144;25.884;2022-08-03T09:24:57;5.57;;;2.20;;
47523;SDS011;33253;42.144;25.884;2022-08-03T09:27:40;3.13;;;2.05;;
47523;SDS011;33253;42.144;25.884;2022-08-03T09:30:18;8.27;;;2.20;;
47523;SDS011;33253;42.144;25.884;2022-08-03T09:32:44;3.10;;;2.10;;
47523;SDS011;33253;42.144;25.884;2022-08-03T09:35:11;4.20;;;1.95;;
47523;SDS011;33253;42.144;25.884;2022-08-03T09:37:37;4.43;;;2.00;;
47523;SDS011;33253;42.144;25.884;2022-08-03T09:40:04;2.58;;;2.00;;
47523;SDS011;33253;42.144;25.884;2022-08-03T09:42:30;3.10;;;1.90;;
47523;SDS011;33253;42.144;25.884;2022-08-03T09:44:58;3.42;;;2.15;;
47523;SDS011;33253;42.144;25.884;2022-08-03T09:47:33;2.75;;;1.90;;
47523;SDS011;33253;42.144;25.884;2022-08-03T09:52:34;3.35;;;1.95;;
47523;SDS011;33253;42.144;25.884;2022-08-03T09:55:07;4.43;;;2.15;;
47523;SDS011;33253;42.144;25.884;2022-08-03T09:57:34;8.05;;;2.92;;
47523;SDS011;33253;42.144;25.884;2022-08-03T10:00:08;4.47;;;2.38;;
47523;SDS011;33253;42.144;25.884;2022-08-03T10:02:36;9.23;;;3.30;;
47523;SDS011;33253;42.144;25.884;2022-08-03T10:05:03;5.30;;;2.13;;
47523;SDS011;33253;42.144;25.884;2022-08-03T10:07:29;2.83;;;1.85;;
47523;SDS011;33253;42.144;25.884;2022-08-03T10:10:05;8.95;;;2.60;;
47523;SDS011;33253;42.144;25.884;2022-08-03T10:12:31;4.03;;;2.03;;
47523;SDS011;33253;42.144;25.884;2022-08-03T10:14:57;5.05;;;2.10;;
47523;SDS011;33253;42.144;25.884;2022-08-03T10:17:23;5.40;;;1.92;;
47523;SDS011;33253;42.144;25.884;2022-08-03T10:19:48;3.25;;;1.80;;
47523;SDS011;33253;42.144;25.884;2022-08-03T10:22:15;2.80;;;2.00;;
47523;SDS011;33253;42.144;25.884;2022-08-03T10:24:49;5.65;;;1.83;;
47523;SDS011;33253;42.144;25.884;2022-08-03T10:27:18;4.30;;;2.05;;
47523;SDS011;33253;42.144;25.884;2022-08-03T10:29:46;5.38;;;2.20;;
47523;SDS011;33253;42.144;25.884;2022-08-03T10:32:27;2.65;;;1.90;;
47523;SDS011;33253;42.144;25.884;2022-08-03T10:35:09;7.30;;;2.05;;
47523;SDS011;33253;42.144;25.884;2022-08-03T10:37:40;4.30;;;1.90;;
47523;SDS011;33253;42.144;25.884;2022-08-03T10:40:12;3.70;;;1.90;;
47523;SDS011;33253;42.144;25.884;2022-08-03T10:42:40;4.43;;;2.10;;
47523;SDS011;33253;42.144;25.884;2022-08-03T10:45:17;15.17;;;3.47;;
47523;SDS011;33253;42.144;25.884;2022-08-03T10:47:50;3.15;;;1.80;;
47523;SDS011;33253;42.144;25.884;2022-08-03T10:50:18;2.38;;;1.85;;
47523;SDS011;33253;42.144;25.884;2022-08-03T10:52:54;5.50;;;1.95;;
47523;SDS011;33253;42.144;25.884;2022-08-03T11:01:02;4.43;;;2.00;;
47523;SDS011;33253;42.144;25.884;2022-08-03T11:06:17;6.60;;;2.03;;
47523;SDS011;33253;42.144;25.884;2022-08-03T11:08:45;3.72;;;2.00;;
47523;SDS011;33253;42.144;25.884;2022-08-03T11:14:02;4.65;;;2.10;;
47523;SDS011;33253;42.144;25.884;2022-08-03T11:19:23;2.90;;;1.90;;
47523;SDS011;33253;42.144;25.884;2022-08-03T11:22:10;2.75;;;1.80;;
47523;SDS011;33253;42.144;25.884;2022-08-03T11:35:13;2.70;;;1.63;;
47523;SDS011;33253;42.144;25.884;2022-08-03T11:40:42;5.72;;;1.90;;
47523;SDS011;33253;42.144;25.884;2022-08-03T11:46:05;3.60;;;1.85;;
47523;SDS011;33253;42.144;25.884;2022-08-03T11:48:48;3.45;;;1.90;;
47523;SDS011;33253;42.144;25.884;2022-08-03T11:51:19;6.15;;;1.77;;
47523;SDS011;33253;42.144;25.884;2022-08-03T11:54:04;3.70;;;1.80;;
47523;SDS011;33253;42.144;25.884;2022-08-03T11:56:44;3.35;;;1.92;;
47523;SDS011;33253;42.144;25.884;2022-08-03T11:59:12;4.57;;;1.80;;
47523;SDS011;33253;42.144;25.884;2022-08-03T12:01:38;3.08;;;1.67;;
47523;SDS011;33253;42.144;25.884;2022-08-03T12:04:04;2.28;;;1.75;;
47523;SDS011;33253;42.144;25.884;2022-08-03T12:06:30;3.90;;;2.00;;
47523;SDS011;33253;42.144;25.884;2022-08-03T12:09:16;6.82;;;2.00;;
47523;SDS011;33253;42.144;25.884;2022-08-03T12:11:41;2.95;;;1.80;;
47523;SDS011;33253;42.144;25.884;2022-08-03T12:14:07;3.40;;;1.88;;
47523;SDS011;33253;42.144;25.884;2022-08-03T12:16:32;2.45;;;2.08;;
47523;SDS011;33253;42.144;25.884;2022-08-03T12:18:58;2.65;;;1.80;;
47523;SDS011;33253;42.144;25.884;2022-08-03T12:21:26;3.15;;;1.80;;
47523;SDS011;33253;42.144;25.884;2022-08-03T12:23:56;3.40;;;1.75;;
47523;SDS011;33253;42.144;25.884;2022-08-03T12:26:24;4.95;;;2.25;;
47523;SDS011;33253;42.144;25.884;2022-08-03T12:28:49;3.25;;;1.80;;
47523;SDS011;33253;42.144;25.884;2022-08-03T12:31:15;3.92;;;1.75;;
47523;SDS011;33253;42.144;25.884;2022-08-03T12:34:00;2.42;;;1.80;;
47523;SDS011;33253;42.144;25.884;2022-08-03T12:36:28;2.80;;;1.83;;
47523;SDS011;33253;42.144;25.884;2022-08-03T12:38:56;1.92;;;1.73;;
47523;SDS011;33253;42.144;25.884;2022-08-03T12:41:27;2.65;;;1.60;;
47523;SDS011;33253;42.144;25.884;2022-08-03T12:43:53;3.92;;;1.50;;
47523;SDS011;33253;42.144;25.884;2022-08-03T12:46:19;3.08;;;1.90;;
47523;SDS011;33253;42.144;25.884;2022-08-03T12:49:01;2.40;;;1.65;;
47523;SDS011;33253;42.144;25.884;2022-08-03T12:54:30;3.83;;;1.85;;
47523;SDS011;33253;42.144;25.884;2022-08-03T12:59:40;5.30;;;2.00;;
47523;SDS011;33253;42.144;25.884;2022-08-03T13:04:49;3.85;;;1.83;;
47523;SDS011;33253;42.144;25.884;2022-08-03T13:07:15;6.35;;;1.60;;
47523;SDS011;33253;42.144;25.884;2022-08-03T13:09:47;3.03;;;1.70;;
47523;SDS011;33253;42.144;25.884;2022-08-03T13:12:16;3.65;;;1.80;;
47523;SDS011;33253;42.144;25.884;2022-08-03T13:14:46;4.68;;;1.70;;
47523;SDS011;33253;42.144;25.884;2022-08-03T13:17:14;4.05;;;1.85;;
47523;SDS011;33253;42.144;25.884;2022-08-03T13:19:43;3.30;;;1.80;;
47523;SDS011;33253;42.144;25.884;2022-08-03T13:22:13;2.25;;;1.50;;
47523;SDS011;33253;42.144;25.884;2022-08-03T13:24:43;4.07;;;1.90;;
47523;SDS011;33253;42.144;25.884;2022-08-03T13:27:11;2.83;;;1.77;;
47523;SDS011;33253;42.144;25.884;2022-08-03T13:29:37;2.55;;;1.67;;
47523;SDS011;33253;42.144;25.884;2022-08-03T13:32:04;3.35;;;1.70;;
47523;SDS011;33253;42.144;25.884;2022-08-03T13:34:31;2.35;;;1.55;;
47523;SDS011;33253;42.144;25.884;2022-08-03T13:36:57;7.28;;;2.22;;
47523;SDS011;33253;42.144;25.884;2022-08-03T13:39:22;3.88;;;1.55;;
47523;SDS011;33253;42.144;25.884;2022-08-03T13:41:48;5.28;;;1.88;;
47523;SDS011;33253;42.144;25.884;2022-08-03T13:44:14;4.75;;;2.22;;
47523;SDS011;33253;42.144;25.884;2022-08-03T13:46:40;5.57;;;1.98;;
47523;SDS011;33253;42.144;25.884;2022-08-03T13:49:05;3.15;;;2.08;;
47523;SDS011;33253;42.144;25.884;2022-08-03T13:51:32;4.53;;;2.65;;
47523;SDS011;33253;42.144;25.884;2022-08-03T13:53:58;8.95;;;2.25;;
47523;SDS011;33253;42.144;25.884;2022-08-03T13:56:24;5.18;;;2.00;;
47523;SDS011;33253;42.144;25.884;2022-08-03T13:58:50;8.05;;;1.83;;
47523;SDS011;33253;42.144;25.884;2022-08-03T14:01:16;3.58;;;2.20;;
47523;SDS011;33253;42.144;25.884;2022-08-03T14:03:41;4.13;;;2.20;;
47523;SDS011;33253;42.144;25.884;2022-08-03T14:06:07;36.35;;;6.85;;
47523;SDS011;33253;42.144;25.884;2022-08-03T14:08:32;3.92;;;2.00;;
47523;SDS011;33253;42.144;25.884;2022-08-03T14:10:58;5.47;;;2.08;;
47523;SDS011;33253;42.144;25.884;2022-08-03T14:13:24;5.90;;;1.90;;
47523;SDS011;33253;42.144;25.884;2022-08-03T14:15:49;3.85;;;2.00;;
47523;SDS011;33253;42.144;25.884;2022-08-03T14:18:16;3.63;;;2.20;;
47523;SDS011;33253;42.144;25.884;2022-08-03T14:20:42;3.75;;;2.05;;
47523;SDS011;33253;42.144;25.884;2022-08-03T14:23:08;3.92;;;2.08;;
47523;SDS011;33253;42.144;25.884;2022-08-03T14:25:34;4.97;;;1.88;;
47523;SDS011;33253;42.144;25.884;2022-08-03T14:28:00;4.80;;;2.08;;
47523;SDS011;33253;42.144;25.884;2022-08-03T14:30:25;3.45;;;2.20;;
47523;SDS011;33253;42.144;25.884;2022-08-03T14:32:51;3.70;;;2.25;;
47523;SDS011;33253;42.144;25.884;2022-08-03T14:35:16;7.65;;;2.00;;
47523;SDS011;33253;42.144;25.884;2022-08-03T14:37:42;5.55;;;2.20;;
47523;SDS011;33253;42.144;25.884;2022-08-03T14:40:07;2.83;;;1.80;;
47523;SDS011;33253;42.144;25.884;2022-08-03T14:42:33;4.10;;;2.00;;
47523;SDS011;33253;42.144;25.884;2022-08-03T14:44:58;3.15;;;2.15;;
47523;SDS011;33253;42.144;25.884;2022-08-03T14:47:24;3.45;;;2.00;;
47523;SDS011;33253;42.144;25.884;2022-08-03T14:49:50;6.25;;;2.40;;
47523;SDS011;33253;42.144;25.884;2022-08-03T14:52:35;6.22;;;2.70;;
47523;SDS011;33253;42.144;25.884;2022-08-03T14:55:00;2.13;;;1.92;;
47523;SDS011;33253;42.144;25.884;2022-08-03T14:57:26;6.93;;;2.10;;
47523;SDS011;33253;42.144;25.884;2022-08-03T14:59:52;12.73;;;2.75;;
47523;SDS011;33253;42.144;25.884;2022-08-03T15:02:18;3.17;;;2.00;;
47523;SDS011;33253;42.144;25.884;2022-08-03T15:04:44;4.75;;;1.67;;
47523;SDS011;33253;42.144;25.884;2022-08-03T15:07:10;2.63;;;1.83;;
47523;SDS011;33253;42.144;25.884;2022-08-03T15:09:35;7.35;;;2.10;;
47523;SDS011;33253;42.144;25.884;2022-08-03T15:12:02;3.00;;;1.80;;
47523;SDS011;33253;42.144;25.884;2022-08-03T15:14:29;5.00;;;1.60;;
47523;SDS011;33253;42.144;25.884;2022-08-03T15:16:54;2.63;;;1.50;;
47523;SDS011;33253;42.144;25.884;2022-08-03T15:19:20;5.78;;;1.63;;
47523;SDS011;33253;42.144;25.884;2022-08-03T15:21:45;5.65;;;1.58;;
47523;SDS011;33253;42.144;25.884;2022-08-03T15:24:10;5.43;;;1.67;;
47523;SDS011;33253;42.144;25.884;2022-08-03T15:26:36;3.05;;;1.63;;
47523;SDS011;33253;42.144;25.884;2022-08-03T15:29:01;2.80;;;1.40;;
47523;SDS011;33253;42.144;25.884;2022-08-03T15:31:27;2.58;;;1.52;;
47523;SDS011;33253;42.144;25.884;2022-08-03T15:33:53;2.92;;;1.58;;
47523;SDS011;33253;42.144;25.884;2022-08-03T15:36:19;3.05;;;1.80;;
47523;SDS011;33253;42.144;25.884;2022-08-03T15:38:45;4.47;;;1.55;;